sensor_id;sensor_type;location;lat;lon;timestamp;temperature;humidity
12843;DHT22;35724;49.324;-123.118;2023-04-24T00:02:37;25.80;44.00
12843;DHT22;35724;49.324;-123.118;2023-04-24T00:12:46;26.00;47.10
12843;DHT22;35724;49.324;-123.118;2023-04-24T00:22:53;26.20;48.80
12843;DHT22;35724;49.324;-123.118;2023-04-24T00:33:02;26.30;48.60
12843;DHT22;35724;49.324;-123.118;2023-04-24T00:43:09;26.20;47.70
12843;DHT22;35724;49.324;-123.118;2023-04-24T00:53:19;26.30;48.30
12843;DHT22;35724;49.324;-123.118;2023-04-24T01:03:29;26.40;48.70
12843;DHT22;35724;49.324;-123.118;2023-04-24T01:13:38;26.40;50.40
12843;DHT22;35724;49.324;-123.118;2023-04-24T01:23:48;26.50;50.10
12843;DHT22;35724;49.324;-123.118;2023-04-24T01:33:56;26.50;50.30
12843;DHT22;35724;49.324;-123.118;2023-04-24T01:44:05;26.60;50.60
12843;DHT22;35724;49.324;-123.118;2023-04-24T01:54:13;26.50;50.60
12843;DHT22;35724;49.324;-123.118;2023-04-24T02:04:22;26.50;50.70
12843;DHT22;35724;49.324;-123.118;2023-04-24T02:14:30;26.50;50.70
12843;DHT22;35724;49.324;-123.118;2023-04-24T02:24:39;26.50;50.70
12843;DHT22;35724;49.324;-123.118;2023-04-24T02:34:47;26.60;50.40
12843;DHT22;35724;49.324;-123.118;2023-04-24T02:44:56;26.50;50.30
12843;DHT22;35724;49.324;-123.118;2023-04-24T02:55:04;26.50;50.10
12843;DHT22;35724;49.324;-123.118;2023-04-24T03:05:14;26.50;49.70
12843;DHT22;35724;49.324;-123.118;2023-04-24T03:15:21;26.50;49.50
12843;DHT22;35724;49.324;-123.118;2023-04-24T03:25:30;26.40;49.50
12843;DHT22;35724;49.324;-123.118;2023-04-24T03:35:38;26.50;50.40
12843;DHT22;35724;49.324;-123.118;2023-04-24T03:45:50;26.60;50.70
12843;DHT22;35724;49.324;-123.118;2023-04-24T03:55:58;26.60;50.40
12843;DHT22;35724;49.324;-123.118;2023-04-24T04:06:08;26.70;50.60
12843;DHT22;35724;49.324;-123.118;2023-04-24T04:16:17;26.80;52.40
12843;DHT22;35724;49.324;-123.118;2023-04-24T04:26:31;26.90;53.70
12843;DHT22;35724;49.324;-123.118;2023-04-24T04:36:41;26.90;51.90
12843;DHT22;35724;49.324;-123.118;2023-04-24T04:47:10;27.00;52.90
12843;DHT22;35724;49.324;-123.118;2023-04-24T04:57:18;27.10;53.50
12843;DHT22;35724;49.324;-123.118;2023-04-24T05:07:27;27.20;54.10
12843;DHT22;35724;49.324;-123.118;2023-04-24T05:17:35;27.20;54.20
12843;DHT22;35724;49.324;-123.118;2023-04-24T05:27:45;27.20;54.60
12843;DHT22;35724;49.324;-123.118;2023-04-24T05:37:54;27.30;50.90
12843;DHT22;35724;49.324;-123.118;2023-04-24T05:48:03;27.30;50.40
12843;DHT22;35724;49.324;-123.118;2023-04-24T05:58:10;27.30;50.10
12843;DHT22;35724;49.324;-123.118;2023-04-24T06:08:20;27.30;50.10
12843;DHT22;35724;49.324;-123.118;2023-04-24T06:18:28;27.20;50.10
12843;DHT22;35724;49.324;-123.118;2023-04-24T06:28:37;27.30;49.40
12843;DHT22;35724;49.324;-123.118;2023-04-24T06:38:44;27.20;49.10
12843;DHT22;35724;49.324;-123.118;2023-04-24T06:48:53;27.20;50.10
12843;DHT22;35724;49.324;-123.118;2023-04-24T06:59:00;27.20;50.20
12843;DHT22;35724;49.324;-123.118;2023-04-24T07:09:09;27.20;50.50
12843;DHT22;35724;49.324;-123.118;2023-04-24T07:19:17;27.20;50.60
12843;DHT22;35724;49.324;-123.118;2023-04-24T07:29:26;27.20;50.90
12843;DHT22;35724;49.324;-123.118;2023-04-24T07:39:33;27.20;50.90
12843;DHT22;35724;49.324;-123.118;2023-04-24T07:49:42;27.30;51.20
12843;DHT22;35724;49.324;-123.118;2023-04-24T07:59:49;27.30;51.20
12843;DHT22;35724;49.324;-123.118;2023-04-24T08:09:58;27.30;51.10
12843;DHT22;35724;49.324;-123.118;2023-04-24T08:20:06;27.30;51.00
12843;DHT22;35724;49.324;-123.118;2023-04-24T08:30:20;27.30;51.10
12843;DHT22;35724;49.324;-123.118;2023-04-24T08:40:28;27.30;51.00
12843;DHT22;35724;49.324;-123.118;2023-04-24T08:50:38;27.30;51.00
12843;DHT22;35724;49.324;-123.118;2023-04-24T09:00:46;27.40;51.00
12843;DHT22;35724;49.324;-123.118;2023-04-24T09:10:55;27.40;50.80
12843;DHT22;35724;49.324;-123.118;2023-04-24T09:21:07;27.30;50.60
12843;DHT22;35724;49.324;-123.118;2023-04-24T09:31:18;27.40;50.60
12843;DHT22;35724;49.324;-123.118;2023-04-24T09:41:27;27.40;50.40
12843;DHT22;35724;49.324;-123.118;2023-04-24T09:51:37;27.40;50.30
12843;DHT22;35724;49.324;-123.118;2023-04-24T10:01:45;27.40;50.20
12843;DHT22;35724;49.324;-123.118;2023-04-24T10:11:55;27.40;50.00
12843;DHT22;35724;49.324;-123.118;2023-04-24T10:22:03;27.40;49.80
12843;DHT22;35724;49.324;-123.118;2023-04-24T10:32:14;27.40;49.70
12843;DHT22;35724;49.324;-123.118;2023-04-24T10:42:21;27.50;49.60
12843;DHT22;35724;49.324;-123.118;2023-04-24T10:52:48;27.40;49.30
12843;DHT22;35724;49.324;-123.118;2023-04-24T11:02:56;27.50;49.20
12843;DHT22;35724;49.324;-123.118;2023-04-24T11:13:05;27.50;49.10
12843;DHT22;35724;49.324;-123.118;2023-04-24T11:23:15;27.40;48.90
12843;DHT22;35724;49.324;-123.118;2023-04-24T11:33:25;27.50;48.80
12843;DHT22;35724;49.324;-123.118;2023-04-24T11:43:32;27.50;48.70
12843;DHT22;35724;49.324;-123.118;2023-04-24T11:53:42;27.50;48.50
12843;DHT22;35724;49.324;-123.118;2023-04-24T12:04:00;27.50;48.40
12843;DHT22;35724;49.324;-123.118;2023-04-24T12:14:15;27.50;48.30
12843;DHT22;35724;49.324;-123.118;2023-04-24T12:24:22;27.50;48.10
12843;DHT22;35724;49.324;-123.118;2023-04-24T12:34:32;27.50;48.00
12843;DHT22;35724;49.324;-123.118;2023-04-24T12:44:39;27.60;47.90
12843;DHT22;35724;49.324;-123.118;2023-04-24T12:54:48;27.60;47.60
12843;DHT22;35724;49.324;-123.118;2023-04-24T13:04:55;27.50;47.40
12843;DHT22;35724;49.324;-123.118;2023-04-24T13:15:05;27.60;47.90
12843;DHT22;35724;49.324;-123.118;2023-04-24T13:25:12;27.60;47.20
12843;DHT22;35724;49.324;-123.118;2023-04-24T13:35:24;27.60;47.10
12843;DHT22;35724;49.324;-123.118;2023-04-24T13:45:31;27.60;47.00
12843;DHT22;35724;49.324;-123.118;2023-04-24T13:55:40;27.60;46.80
12843;DHT22;35724;49.324;-123.118;2023-04-24T14:05:47;27.60;46.80
12843;DHT22;35724;49.324;-123.118;2023-04-24T14:15:56;27.50;43.60
12843;DHT22;35724;49.324;-123.118;2023-04-24T14:26:03;27.30;43.30
12843;DHT22;35724;49.324;-123.118;2023-04-24T14:36:12;27.10;43.90
12843;DHT22;35724;49.324;-123.118;2023-04-24T14:46:20;27.20;44.10
12843;DHT22;35724;49.324;-123.118;2023-04-24T14:56:29;27.10;44.10
12843;DHT22;35724;49.324;-123.118;2023-04-24T15:06:36;27.20;44.10
12843;DHT22;35724;49.324;-123.118;2023-04-24T15:16:45;27.20;43.80
12843;DHT22;35724;49.324;-123.118;2023-04-24T15:26:52;27.20;43.70
12843;DHT22;35724;49.324;-123.118;2023-04-24T15:37:08;27.20;43.40
12843;DHT22;35724;49.324;-123.118;2023-04-24T15:47:15;27.20;43.60
12843;DHT22;35724;49.324;-123.118;2023-04-24T15:57:24;27.10;43.60
12843;DHT22;35724;49.324;-123.118;2023-04-24T16:07:31;27.10;43.40
12843;DHT22;35724;49.324;-123.118;2023-04-24T16:17:40;27.00;43.40
12843;DHT22;35724;49.324;-123.118;2023-04-24T16:27:48;27.00;43.30
12843;DHT22;35724;49.324;-123.118;2023-04-24T16:37:59;26.90;43.20
12843;DHT22;35724;49.324;-123.118;2023-04-24T16:48:07;27.10;43.50
12843;DHT22;35724;49.324;-123.118;2023-04-24T16:58:19;27.20;43.30
12843;DHT22;35724;49.324;-123.118;2023-04-24T17:08:26;27.20;43.10
12843;DHT22;35724;49.324;-123.118;2023-04-24T17:18:36;27.10;42.70
12843;DHT22;35724;49.324;-123.118;2023-04-24T17:28:52;27.20;42.70
12843;DHT22;35724;49.324;-123.118;2023-04-24T17:39:02;27.20;42.50
12843;DHT22;35724;49.324;-123.118;2023-04-24T17:49:09;27.20;42.30
12843;DHT22;35724;49.324;-123.118;2023-04-24T17:59:18;27.20;42.10
12843;DHT22;35724;49.324;-123.118;2023-04-24T18:09:26;27.30;41.80
12843;DHT22;35724;49.324;-123.118;2023-04-24T18:19:35;27.20;42.20
12843;DHT22;35724;49.324;-123.118;2023-04-24T18:29:41;27.30;42.60
12843;DHT22;35724;49.324;-123.118;2023-04-24T18:39:51;27.30;42.70
12843;DHT22;35724;49.324;-123.118;2023-04-24T18:49:59;27.30;43.20
12843;DHT22;35724;49.324;-123.118;2023-04-24T19:00:10;27.40;43.50
12843;DHT22;35724;49.324;-123.118;2023-04-24T19:10:17;27.50;43.50
12843;DHT22;35724;49.324;-123.118;2023-04-24T19:20:26;27.40;42.90
12843;DHT22;35724;49.324;-123.118;2023-04-24T19:30:33;27.40;43.00
12843;DHT22;35724;49.324;-123.118;2023-04-24T19:40:43;27.40;42.20
12843;DHT22;35724;49.324;-123.118;2023-04-24T19:50:50;27.30;41.30
12843;DHT22;35724;49.324;-123.118;2023-04-24T20:00:59;27.20;41.20
12843;DHT22;35724;49.324;-123.118;2023-04-24T20:11:06;27.10;41.00
12843;DHT22;35724;49.324;-123.118;2023-04-24T20:21:15;27.30;41.60
12843;DHT22;35724;49.324;-123.118;2023-04-24T20:31:22;27.00;40.10
12843;DHT22;35724;49.324;-123.118;2023-04-24T20:41:31;26.90;42.10
12843;DHT22;35724;49.324;-123.118;2023-04-24T20:51:39;26.80;42.20
12843;DHT22;35724;49.324;-123.118;2023-04-24T21:01:48;26.60;41.70
12843;DHT22;35724;49.324;-123.118;2023-04-24T21:11:55;26.40;41.10
12843;DHT22;35724;49.324;-123.118;2023-04-24T21:22:04;26.00;41.00
12843;DHT22;35724;49.324;-123.118;2023-04-24T21:32:11;25.90;41.30
12843;DHT22;35724;49.324;-123.118;2023-04-24T21:42:21;25.70;41.30
12843;DHT22;35724;49.324;-123.118;2023-04-24T21:52:28;25.70;41.10
12843;DHT22;35724;49.324;-123.118;2023-04-24T22:02:36;25.50;41.40
12843;DHT22;35724;49.324;-123.118;2023-04-24T22:12:46;25.50;41.60
12843;DHT22;35724;49.324;-123.118;2023-04-24T22:22:55;25.50;42.40
12843;DHT22;35724;49.324;-123.118;2023-04-24T22:33:02;25.60;41.90
12843;DHT22;35724;49.324;-123.118;2023-04-24T22:43:13;25.70;42.00
12843;DHT22;35724;49.324;-123.118;2023-04-24T22:53:21;25.70;41.90
12843;DHT22;35724;49.324;-123.118;2023-04-24T23:03:29;26.10;42.10
12843;DHT22;35724;49.324;-123.118;2023-04-24T23:13:37;26.20;42.30
12843;DHT22;35724;49.324;-123.118;2023-04-24T23:23:45;26.20;42.70
12843;DHT22;35724;49.324;-123.118;2023-04-24T23:33:54;26.30;43.10
12843;DHT22;35724;49.324;-123.118;2023-04-24T23:44:06;26.30;41.70
12843;DHT22;35724;49.324;-123.118;2023-04-24T23:54:13;26.30;41.10
